createdAt,value
2023-06-02T00:02:13.549Z,101972.38
2023-06-02T00:04:42.043Z,101977.59
2023-06-02T00:07:10.163Z,101971.44
2023-06-02T00:09:39.445Z,101968.88
2023-06-02T00:12:09.200Z,101969.94
2023-06-02T00:14:39.196Z,101964.22
2023-06-02T00:17:08.306Z,101968.69
2023-06-02T00:19:36.717Z,101972.06
2023-06-02T00:22:08.246Z,101971.22
2023-06-02T00:24:36.119Z,101963.63
2023-06-02T00:27:03.880Z,101967.44
2023-06-02T00:29:31.897Z,101964.28
2023-06-02T00:32:01.148Z,101964.28
2023-06-02T00:34:28.917Z,101965.97
2023-06-02T00:36:56.728Z,101956.41
2023-06-02T00:39:24.541Z,101963.22
2023-06-02T00:41:52.445Z,101965.63
2023-06-02T00:44:21.427Z,101966.19
2023-06-02T00:46:49.196Z,101968.09
2023-06-02T00:49:18.419Z,101974.38
2023-06-02T00:51:46.797Z,101964.91
2023-06-02T00:54:16.786Z,101971.72
2023-06-02T00:56:44.494Z,101964.13
2023-06-02T00:59:12.803Z,101965.16
2023-06-02T01:01:41.842Z,101968.66
2023-06-02T01:04:09.857Z,101971.97
2023-06-02T01:06:39.420Z,101970.88
2023-06-02T01:09:11.949Z,101977.88
2023-06-02T01:11:39.927Z,101975.47
2023-06-02T01:14:07.678Z,101972.81
2023-06-02T01:16:35.376Z,101970.34
2023-06-02T01:19:03.603Z,101972.38
2023-06-02T01:21:35.404Z,101971.53
2023-06-02T01:24:05.000Z,101972.50
2023-06-02T01:26:35.483Z,101974.50
2023-06-02T01:29:03.742Z,101981.09
2023-06-02T01:31:34.997Z,101971.13
2023-06-02T01:34:09.433Z,101962.00
2023-06-02T01:36:40.183Z,101973.47
2023-06-02T01:39:10.293Z,101969.66
2023-06-02T01:41:41.362Z,101963.09
2023-06-02T01:44:09.141Z,101967.31
2023-06-02T01:46:36.953Z,101976.22
2023-06-02T01:49:04.687Z,101962.25
2023-06-02T01:51:32.755Z,101976.41
2023-06-02T01:54:02.567Z,101971.47
2023-06-02T01:56:31.779Z,101966.28
2023-06-02T01:59:01.645Z,101971.75
2023-06-02T02:01:29.720Z,101973.16
2023-06-02T02:03:57.637Z,101976.22
2023-06-02T02:06:30.812Z,101977.28
2023-06-02T02:08:58.751Z,101983.22
2023-06-02T02:11:27.709Z,101983.00
2023-06-02T02:13:57.091Z,101982.78
2023-06-02T02:16:24.845Z,101976.22
2023-06-02T02:18:53.514Z,101981.94
2023-06-02T02:21:21.617Z,101985.13
2023-06-02T02:23:49.463Z,101981.53
2023-06-02T02:26:17.535Z,101978.66
2023-06-02T02:28:45.337Z,101975.81
2023-06-02T02:31:15.199Z,101972.81
2023-06-02T02:33:43.013Z,101970.28
2023-06-02T02:36:13.068Z,101965.81
2023-06-02T02:38:40.879Z,101971.13
2023-06-02T02:41:08.696Z,101971.97
2023-06-02T02:43:36.435Z,101969.00
2023-06-02T02:46:04.596Z,101975.28
2023-06-02T02:48:34.856Z,101972.72
2023-06-02T02:51:02.698Z,101971.88
2023-06-02T02:53:32.315Z,101972.50
2023-06-02T02:56:00.432Z,101970.94
2023-06-02T02:58:28.280Z,101973.69
2023-06-02T03:00:56.802Z,101974.84
2023-06-02T03:03:24.683Z,101972.41
2023-06-02T03:05:55.912Z,101971.56
2023-06-02T03:08:23.934Z,101958.81
2023-06-02T03:10:51.666Z,101962.25
2023-06-02T03:13:19.380Z,101963.09
2023-06-02T03:15:47.228Z,101963.94
2023-06-02T03:18:14.993Z,101961.28
2023-06-02T03:20:43.339Z,101967.53
2023-06-02T03:23:12.829Z,101962.66
2023-06-02T03:25:41.760Z,101978.56
2023-06-02T03:28:09.536Z,101978.75
2023-06-02T03:30:37.318Z,101979.72
2023-06-02T03:33:05.227Z,101980.44
2023-06-02T03:35:33.137Z,101982.06
2023-06-02T03:38:00.920Z,101982.69
2023-06-02T03:40:30.168Z,101983.44
2023-06-02T03:42:58.000Z,101979.63
2023-06-02T03:45:25.982Z,101981.09
2023-06-02T03:47:53.792Z,101978.22
2023-06-02T03:50:21.509Z,101978.34
2023-06-02T03:52:49.268Z,101983.53
2023-06-02T03:55:17.340Z,101979.91
2023-06-02T03:57:47.185Z,101986.81
2023-06-02T04:00:15.368Z,101982.38
2023-06-02T04:02:43.465Z,101985.97
2023-06-02T04:05:13.054Z,101988.84
2023-06-02T04:07:41.061Z,101981.72
2023-06-02T04:10:09.358Z,101985.22
2023-06-02T04:12:37.042Z,101988.09
2023-06-02T04:15:06.773Z,101985.66
2023-06-02T04:17:34.555Z,101984.91
2023-06-02T04:20:02.335Z,101985.13
2023-06-02T04:22:29.999Z,101999.34
2023-06-02T04:24:57.698Z,101985.88
2023-06-02T04:27:25.468Z,101992.56
2023-06-02T04:29:53.256Z,101993.69
2023-06-02T04:32:22.476Z,102000.91
2023-06-02T04:34:51.455Z,101993.81
2023-06-02T04:37:19.656Z,101998.06
2023-06-02T04:39:51.349Z,101998.59
2023-06-02T04:42:19.197Z,102000.09
2023-06-02T04:44:48.234Z,102001.78
2023-06-02T04:47:15.945Z,101999.97
2023-06-02T04:49:45.041Z,102003.34
2023-06-02T04:52:12.830Z,102009.31
2023-06-02T04:54:40.995Z,101998.81
2023-06-02T04:57:09.684Z,101998.16
2023-06-02T04:59:37.627Z,101997.44
2023-06-02T05:02:05.639Z,102003.25
2023-06-02T05:04:33.670Z,102012.69
2023-06-02T05:07:04.732Z,102006.53
2023-06-02T05:09:32.379Z,102009.31
2023-06-02T05:12:00.562Z,102012.94
2023-06-02T05:14:28.848Z,102013.13
2023-06-02T05:16:57.220Z,102011.19
2023-06-02T05:19:24.973Z,102019.06
2023-06-02T05:21:52.724Z,102004.22
2023-06-02T05:24:21.931Z,101999.66
2023-06-02T05:26:49.680Z,102005.81
2023-06-02T05:29:17.402Z,102002.09
2023-06-02T05:31:45.043Z,102004.00
2023-06-02T05:34:12.993Z,102003.25
2023-06-02T05:36:40.708Z,102004.00
2023-06-02T05:39:08.438Z,102011.00
2023-06-02T05:41:37.610Z,102010.16
2023-06-02T05:44:05.353Z,102007.63
2023-06-02T05:46:33.220Z,102007.63
2023-06-02T05:49:01.075Z,102006.13
2023-06-02T05:51:28.801Z,102006.13
2023-06-02T05:53:56.552Z,102002.50
2023-06-02T05:56:24.317Z,102006.97
2023-06-02T05:58:53.707Z,102003.78
2023-06-02T06:01:21.468Z,102000.81
2023-06-02T06:03:49.263Z,102015.66
2023-06-02T06:06:17.258Z,102008.47
2023-06-02T06:08:45.003Z,102012.69
2023-06-02T06:11:13.428Z,102000.19
2023-06-02T06:13:41.180Z,102008.66
2023-06-02T06:16:10.301Z,102009.19
2023-06-02T06:18:38.038Z,101999.31
2023-06-02T06:21:05.806Z,102001.03
2023-06-02T06:23:33.519Z,101998.25
2023-06-02T06:26:01.342Z,102003.13
2023-06-02T06:28:29.237Z,102010.59
2023-06-02T06:30:57.093Z,102012.47
2023-06-02T06:33:26.304Z,102009.94
2023-06-02T06:35:54.876Z,102019.50
2023-06-02T06:38:22.554Z,102020.84
2023-06-02T06:40:50.287Z,102022.53
2023-06-02T06:45:48.721Z,102017.16
2023-06-02T06:48:16.480Z,102007.28
2023-06-02T06:50:45.850Z,102027.00
2023-06-02T06:53:13.517Z,102025.19
2023-06-02T06:55:41.237Z,102016.09
2023-06-02T06:58:09.004Z,102022.00
2023-06-02T07:00:36.814Z,102017.44
2023-06-02T07:03:04.811Z,102027.63
2023-06-02T07:05:32.584Z,102023.78
2023-06-02T07:08:01.979Z,102022.59
2023-06-02T07:10:29.846Z,102037.47
2023-06-02T07:12:57.685Z,102036.59
2023-06-02T07:15:25.410Z,102034.81
2023-06-02T07:17:53.159Z,102031.09
2023-06-02T07:20:20.934Z,102032.19
2023-06-02T07:22:48.671Z,102033.22
2023-06-02T07:25:17.827Z,102029.84
2023-06-02T07:27:45.598Z,102036.84
2023-06-02T07:30:14.071Z,102039.38
2023-06-02T07:32:41.810Z,102040.03
2023-06-02T07:35:10.021Z,102054.03
2023-06-02T07:37:37.733Z,102048.47
2023-06-02T07:40:06.391Z,102045.50
2023-06-02T07:42:35.508Z,102041.69
2023-06-02T07:45:03.360Z,102039.25
2023-06-02T07:47:31.136Z,102039.47
2023-06-02T07:49:59.062Z,102050.19
2023-06-02T07:52:26.780Z,102037.38
2023-06-02T07:54:54.445Z,102042.69
2023-06-02T07:57:22.211Z,102036.41
2023-06-02T07:59:55.567Z,102044.38
2023-06-02T08:02:23.496Z,102041.59
2023-06-02T08:04:51.446Z,102036.81
2023-06-02T08:07:19.235Z,102037.53
2023-06-02T08:09:47.091Z,102030.31
2023-06-02T08:12:14.909Z,102029.03
2023-06-02T08:14:43.851Z,102037.41
2023-06-02T08:17:13.365Z,102040.78
2023-06-02T08:19:41.111Z,102046.09
2023-06-02T08:22:10.898Z,102041.50
2023-06-02T08:24:39.187Z,102043.97
2023-06-02T08:27:09.644Z,102044.81
2023-06-02T08:29:37.364Z,102038.47
2023-06-02T08:32:05.762Z,102049.91
2023-06-02T08:34:34.941Z,102052.47
2023-06-02T08:37:02.682Z,102058.53
2023-06-02T08:39:31.123Z,102057.34
2023-06-02T08:42:03.023Z,102049.03
2023-06-02T08:44:30.929Z,102051.47
2023-06-02T08:46:59.146Z,102049.53
2023-06-02T08:49:27.909Z,102051.00
2023-06-02T08:52:01.948Z,102046.56
2023-06-02T08:54:30.071Z,102052.59
2023-06-02T08:57:00.215Z,102050.44
2023-06-02T08:59:27.992Z,102054.59
2023-06-02T09:01:56.950Z,102033.53
2023-06-02T09:04:24.713Z,102061.25
2023-06-02T09:07:16.917Z,102049.56
2023-06-02T09:09:46.104Z,102049.31
2023-06-02T09:12:14.713Z,102052.69
2023-06-02T09:14:43.136Z,102055.59
2023-06-02T09:17:27.523Z,102051.13
2023-06-02T09:19:56.714Z,102058.97
2023-06-02T09:22:26.009Z,102044.50
2023-06-02T09:24:54.542Z,102057.56
2023-06-02T09:27:22.568Z,102048.63
2023-06-02T09:29:51.829Z,102050.94
2023-06-02T09:32:21.187Z,102051.53
2023-06-02T09:34:50.236Z,102042.53
2023-06-02T09:37:19.158Z,102053.03
2023-06-02T09:39:50.491Z,102046.03
2023-06-02T09:42:20.517Z,102051.94
2023-06-02T09:45:04.046Z,102047.97
2023-06-02T09:47:38.863Z,102053.06
2023-06-02T09:50:07.557Z,102052.94
2023-06-02T09:52:36.277Z,102063.34
2023-06-02T09:55:09.457Z,102056.09
2023-06-02T09:57:37.508Z,102056.94
2023-06-02T10:00:08.103Z,102054.41
2023-06-02T10:02:36.393Z,102054.28
2023-06-02T10:05:06.531Z,102050.44
2023-06-02T10:07:43.152Z,102048.38
2023-06-02T10:10:23.580Z,102048.75
2023-06-02T10:13:06.001Z,102041.50
2023-06-02T10:16:00.675Z,102046.34
2023-06-02T10:18:51.646Z,102040.81
2023-06-02T10:21:24.506Z,102042.25
2023-06-02T10:23:58.582Z,102031.63
2023-06-02T10:26:44.179Z,102046.50
2023-06-02T10:29:12.018Z,102044.69
2023-06-02T10:31:40.518Z,102048.09
2023-06-02T10:34:08.287Z,102041.81
2023-06-02T10:37:21.793Z,102042.53
2023-06-02T10:39:52.684Z,102035.06
2023-06-02T10:42:23.305Z,102034.81
2023-06-02T10:44:53.089Z,102041.59
2023-06-02T10:47:39.366Z,102039.53
2023-06-02T10:50:13.573Z,102032.75
2023-06-02T10:53:11.136Z,102034.31
2023-06-02T10:55:40.713Z,102039.28
2023-06-02T10:58:13.350Z,102046.31
2023-06-02T11:00:51.190Z,102037.81
2023-06-02T11:03:34.819Z,102034.63
2023-06-02T11:06:25.446Z,102034.69
2023-06-02T11:08:54.308Z,102030.66
2023-06-02T11:11:54.381Z,102022.03
2023-06-02T11:14:24.198Z,102019.34
2023-06-02T11:17:31.846Z,102016.81
2023-06-02T11:20:00.231Z,102009.94
2023-06-02T11:22:28.478Z,102013.44
2023-06-02T11:24:57.454Z,102013.19
2023-06-02T11:27:37.821Z,102014.88
2023-06-02T11:31:32.653Z,102004.16
2023-06-02T11:34:00.525Z,102014.81
2023-06-02T11:36:29.534Z,101997.97
2023-06-02T11:39:03.936Z,101996.81
2023-06-02T11:41:32.243Z,102002.66
2023-06-02T11:44:05.535Z,101995.28
2023-06-02T11:46:34.774Z,102002.63
2023-06-02T11:49:02.847Z,102007.22
2023-06-02T11:51:31.376Z,102005.97
2023-06-02T11:54:03.922Z,102006.63
2023-06-02T11:56:33.167Z,101999.56
2023-06-02T11:59:00.933Z,101977.50
2023-06-02T12:01:34.614Z,101989.47
2023-06-02T12:04:05.696Z,101992.72
2023-06-02T12:06:34.707Z,101991.94
2023-06-02T12:09:11.755Z,101985.19
2023-06-02T12:11:39.765Z,101979.13
2023-06-02T12:14:08.583Z,101973.97
2023-06-02T14:07:49.982Z,101944.75
2023-06-02T14:10:18.067Z,101938.41
2023-06-02T14:12:47.297Z,101938.78
2023-06-02T14:15:15.672Z,101944.13
2023-06-02T14:17:43.361Z,101947.81
2023-06-02T14:20:11.711Z,101943.59
2023-06-02T14:22:39.477Z,101945.13
2023-06-02T14:25:09.602Z,101938.25
2023-06-02T14:27:37.304Z,101941.91
2023-06-02T14:30:05.729Z,101946.81
2023-06-02T14:32:33.471Z,101944.44
2023-06-02T14:35:01.258Z,101939.38
2023-06-02T14:37:29.400Z,101934.03
2023-06-02T14:50:10.704Z,101928.72
2023-06-02T14:52:38.519Z,101926.63
2023-06-02T14:55:07.296Z,101934.63
2023-06-02T14:57:35.196Z,101933.75
2023-06-02T15:00:03.493Z,101925.00
2023-06-02T15:02:31.270Z,101933.44
2023-06-02T15:04:58.990Z,101930.88
2023-06-02T15:07:28.223Z,101929.47
2023-06-02T15:09:55.987Z,101935.38
2023-06-02T15:12:23.697Z,101932.41
2023-06-02T15:14:51.374Z,101923.22
2023-06-02T15:19:49.176Z,101925.47
2023-06-02T15:22:17.341Z,101925.16
2023-06-02T15:24:45.163Z,101934.44
2023-06-02T15:27:13.392Z,101928.63
2023-06-02T15:29:41.117Z,101920.28
2023-06-02T15:32:09.674Z,101916.00
2023-06-02T15:34:37.432Z,101899.06
2023-06-02T15:37:07.454Z,101915.34
2023-06-02T15:39:35.233Z,101905.00
2023-06-02T15:42:02.996Z,101906.22
2023-06-02T15:44:30.649Z,101906.22
2023-06-02T15:46:58.417Z,101899.19
2023-06-02T15:49:27.512Z,101888.75
2023-06-02T15:51:55.875Z,101906.22
2023-06-02T15:54:25.016Z,101891.91
2023-06-02T15:56:53.965Z,101884.66
2023-06-02T15:59:21.829Z,101888.03
2023-06-02T16:01:49.746Z,101881.72
2023-06-02T16:04:17.649Z,101882.66
2023-06-02T16:06:45.361Z,101876.34
2023-06-02T16:37:19.926Z,101877.75
2023-06-02T16:39:47.906Z,101872.31
2023-06-02T16:44:04.848Z,101878.66
2023-06-02T16:46:32.911Z,101876.06
2023-06-02T16:49:00.747Z,101878.81
2023-06-02T16:51:28.462Z,101874.63
2023-06-02T16:53:56.383Z,101870.72
2023-06-02T16:56:24.173Z,101873.56
2023-06-02T16:58:52.119Z,101875.69
2023-06-02T17:01:21.378Z,101878.91
2023-06-02T17:03:49.141Z,101872.09
2023-06-02T17:06:18.563Z,101883.88
2023-06-02T17:08:46.336Z,101874.50
2023-06-02T17:11:14.129Z,101878.59
2023-06-02T17:13:41.890Z,101874.22
2023-06-02T17:16:09.776Z,101872.00
2023-06-02T17:18:38.866Z,101866.63
2023-06-02T17:21:06.784Z,101873.16
2023-06-02T17:23:34.703Z,101872.50
2023-06-02T17:26:02.790Z,101880.19
2023-06-02T17:28:31.005Z,101878.53
2023-06-02T17:30:59.809Z,101871.16
2023-06-02T17:33:27.601Z,101872.84
2023-06-02T17:35:56.796Z,101877.69
2023-06-02T17:38:24.597Z,101882.22
2023-06-02T17:40:52.378Z,101881.88
2023-06-02T17:43:20.392Z,101883.28
2023-06-02T17:45:48.493Z,101877.91
2023-06-02T17:48:16.283Z,101885.25
2023-06-02T17:50:44.058Z,101885.72
2023-06-02T17:53:13.499Z,101887.34
2023-06-02T17:55:43.058Z,101883.44
2023-06-02T17:58:11.192Z,101888.09
2023-06-02T18:00:39.087Z,101897.41
2023-06-02T18:03:06.967Z,101894.38
2023-06-02T18:05:34.898Z,101885.25
2023-06-02T18:08:03.753Z,101894.59
2023-06-02T18:10:32.897Z,101892.38
2023-06-02T18:13:01.803Z,101892.69
2023-06-02T18:15:29.801Z,101895.50
2023-06-02T18:17:57.572Z,101887.63
2023-06-02T18:20:25.367Z,101896.66
2023-06-02T18:22:53.445Z,101895.50
2023-06-02T18:25:21.896Z,101906.22
2023-06-02T18:27:51.499Z,101893.84
2023-06-02T18:30:19.250Z,101900.56
2023-06-02T18:32:47.522Z,101899.72
2023-06-02T18:35:15.272Z,101902.56
2023-06-02T18:37:43.057Z,101905.38
2023-06-02T18:40:12.287Z,101905.69
2023-06-02T18:43:14.309Z,101904.84
2023-06-02T18:45:42.039Z,101905.16
2023-06-02T18:48:11.003Z,101906.16
2023-06-02T18:50:39.348Z,101906.31
2023-06-02T18:53:07.308Z,101904.75
2023-06-02T18:55:35.049Z,101900.72
2023-06-02T18:58:02.766Z,101908.75
2023-06-02T19:00:31.892Z,101898.78
2023-06-02T19:02:59.719Z,101898.78
2023-06-02T19:05:27.537Z,101915.38
2023-06-02T19:07:55.421Z,101912.00
2023-06-02T19:10:23.311Z,101908.34
2023-06-02T19:12:51.046Z,101913.16
2023-06-02T19:15:18.769Z,101907.97
2023-06-02T19:17:51.298Z,101904.41
2023-06-02T19:20:19.275Z,101910.09
2023-06-02T19:22:47.123Z,101905.88
2023-06-02T19:25:15.237Z,101908.84
2023-06-02T19:27:43.040Z,101912.81
2023-06-02T19:30:11.394Z,101916.78
2023-06-02T19:32:43.569Z,101917.78
2023-06-02T19:35:12.749Z,101924.56
2023-06-02T19:37:40.602Z,101922.03
2023-06-02T19:40:10.397Z,101922.34
2023-06-02T19:42:38.533Z,101923.59
2023-06-02T19:45:07.140Z,101935.59
2023-06-02T19:47:34.912Z,101932.22
2023-06-02T19:50:02.710Z,101937.84
2023-06-02T19:52:31.829Z,101935.91
2023-06-02T19:55:01.183Z,101939.72
2023-06-02T19:57:29.058Z,101935.66
2023-06-02T19:59:56.931Z,101938.63
2023-06-02T20:02:24.698Z,101939.91
2023-06-02T20:04:55.333Z,101937.69
2023-06-02T20:08:56.090Z,101942.75
2023-06-02T20:11:23.830Z,101939.25
2023-06-02T20:13:52.250Z,101943.03
2023-06-02T20:16:20.132Z,101943.63
2023-06-02T20:18:47.854Z,101945.56
2023-06-02T20:21:15.555Z,101940.00
2023-06-02T20:23:43.879Z,101953.19
2023-06-02T20:26:13.988Z,101957.84
2023-06-02T20:28:43.911Z,101952.94
2023-06-02T20:31:11.834Z,101956.59
2023-06-02T20:33:39.651Z,101953.50
2023-06-02T20:36:07.786Z,101953.78
2023-06-02T20:38:35.529Z,101961.09
2023-06-02T20:41:03.316Z,101964.03
2023-06-02T20:43:32.846Z,101961.38
2023-06-02T20:46:00.570Z,101966.13
2023-06-02T20:48:28.305Z,101973.59
2023-06-02T20:50:55.964Z,101970.09
2023-06-02T20:53:23.764Z,101970.22
2023-06-02T20:55:52.599Z,101971.34
2023-06-02T20:58:22.905Z,101974.16
2023-06-02T21:00:52.155Z,101969.78
2023-06-02T21:03:19.892Z,101982.47
2023-06-02T21:05:47.982Z,101979.06
2023-06-02T21:08:15.727Z,101979.34
2023-06-02T21:10:43.470Z,101984.09
2023-06-02T21:13:11.283Z,101982.72
2023-06-02T21:15:38.974Z,101981.19
2023-06-02T21:18:08.340Z,101983.25
2023-06-02T21:20:36.768Z,101985.25
2023-06-02T21:23:04.412Z,101983.69
2023-06-02T21:25:32.137Z,101983.81
2023-06-02T21:27:59.976Z,101981.28
2023-06-02T21:30:27.739Z,101988.59
2023-06-02T21:32:55.559Z,101991.25
2023-06-02T21:35:24.741Z,101987.16
2023-06-02T21:37:52.456Z,101987.44
2023-06-02T21:40:20.165Z,101976.63
2023-06-02T21:42:47.915Z,101995.47
2023-06-02T21:45:15.797Z,101989.69
2023-06-02T21:47:44.030Z,101989.56
2023-06-02T21:50:12.211Z,101993.06
2023-06-02T21:52:41.631Z,101987.84
2023-06-02T21:55:09.662Z,101993.47
2023-06-02T21:57:37.445Z,101987.56
2023-06-02T22:00:06.781Z,101988.53
2023-06-02T22:02:34.858Z,101990.50
2023-06-02T22:05:03.078Z,101992.47
2023-06-02T22:07:30.882Z,101993.72
2023-06-02T22:10:00.057Z,102002.00
2023-06-02T22:12:27.907Z,101989.88
2023-06-02T22:14:56.421Z,101997.88
2023-06-02T22:17:24.734Z,101995.50
2023-06-02T22:19:52.560Z,101992.97
2023-06-02T22:22:20.303Z,102001.38
2023-06-02T22:24:47.982Z,101999.69
2023-06-02T22:27:17.093Z,101999.69
2023-06-02T22:29:44.773Z,101994.16
2023-06-02T22:32:12.503Z,102006.38
2023-06-02T22:34:40.394Z,102005.81
2023-06-02T22:37:08.230Z,102009.44
2023-06-02T22:39:36.006Z,102004.25
2023-06-02T22:42:03.733Z,102005.22
2023-06-02T22:44:32.867Z,102006.34
2023-06-02T22:47:01.172Z,102011.94
2023-06-02T22:49:28.940Z,102007.97
2023-06-02T22:51:56.690Z,102019.63
2023-06-02T22:54:24.388Z,102018.06
2023-06-02T22:56:52.139Z,102019.16
2023-06-02T22:59:19.829Z,102021.13
2023-06-02T23:01:48.965Z,102029.28
2023-06-02T23:04:16.745Z,102034.84
2023-06-02T23:06:44.522Z,102034.16
2023-06-02T23:09:12.484Z,102038.78
2023-06-02T23:11:40.574Z,102038.03
2023-06-02T23:14:08.312Z,102038.31
2023-06-02T23:16:36.083Z,102040.41
2023-06-02T23:19:05.708Z,102037.84
2023-06-02T23:21:33.565Z,102039.78
2023-06-02T23:24:01.321Z,102041.06
2023-06-02T23:26:29.092Z,102047.34
2023-06-02T23:28:56.786Z,102042.13
2023-06-02T23:31:24.508Z,102051.25
2023-06-02T23:33:52.266Z,102051.25
2023-06-02T23:36:21.589Z,102048.72
2023-06-02T23:38:49.405Z,102055.13
2023-06-02T23:41:17.326Z,102055.41
2023-06-02T23:43:45.176Z,102056.25
2023-06-02T23:46:12.899Z,102059.88
2023-06-02T23:48:40.774Z,102049.50
2023-06-02T23:51:09.906Z,102050.44
2023-06-02T23:53:39.063Z,102050.56
2023-06-02T23:56:08.119Z,102040.41
2023-06-02T23:58:36.294Z,102048.16
